Terminal Aerodrome Forecast
Issued by NWS

Home | Current Version | Previous Version | Text Only | Print | Product List | Glossary On
Versions: 1 2 3 4 5 6 7 8 9 10 11 12 13
000
FTUS45 KABQ 180500
TAFSAF
TAF
KSAF 180524Z 1806/1906 17008KT P6SM VCSH OVC050
      TEMPO 1807/1811 5SM -SN OVC025
     FM181100 34006KT P6SM BKN025
     FM181500 31009KT P6SM BKN050
     FM182100 30016G28KT P6SM BKN070
     FM190200 34011KT P6SM BKN100=

USA.gov is the U.S. government's official web portal to all federal, state and local government web resources and services.